DLH346 EGKK-EDDF
Flight info
| Callsign | DLH346 |
|---|---|
| Flight time | 0h 34m |
| Altitude | 35000 |
| Route | DVR UL9 KONAN UL607 KOK DCT REMBA UL607 SPI T180 NIVNU/N0410F230 T847 IMCOM IMCOM1B |
| Aircraft | A346/H-SDE2E3FGHIJ3J4J5M1RWXY/LB1D1 |
Departure
| Time | 2026-05-06 13:17 |
|---|---|
| Airport | London Gatwick Airport (EGKK) |
Arrival
| Time | 2026-05-06 13:52 |
|---|---|
| Airport | Frankfurt Main Airport (EDDF) |
| Time | Latitude | Longitude | Altitude | Speed | Heading |
|---|---|---|---|---|---|
| 2026-05-06 12:58 | 51.15671 | -0.17280 | 216 ft | 0 kts | 168° |
| 2026-05-06 13:10 | 51.15652 | -0.17275 | 218 ft | 9 kts | 175° |
| 2026-05-06 13:10 | 51.15590 | -0.17393 | 222 ft | 23 kts | 245° |
| 2026-05-06 13:11 | 51.15552 | -0.17584 | 219 ft | 5 kts | 274° |
| 2026-05-06 13:11 | 51.15512 | -0.17736 | 217 ft | 26 kts | 256° |
| 2026-05-06 13:11 | 51.15468 | -0.18049 | 219 ft | 35 kts | 255° |
| 2026-05-06 13:11 | 51.15440 | -0.18217 | 216 ft | 12 kts | 252° |
| 2026-05-06 13:12 | 51.15385 | -0.18267 | 219 ft | 10 kts | 174° |
| 2026-05-06 13:12 | 51.15310 | -0.18252 | 221 ft | 12 kts | 168° |
| 2026-05-06 13:12 | 51.15231 | -0.18227 | 221 ft | 10 kts | 180° |
| 2026-05-06 13:12 | 51.15190 | -0.18286 | 222 ft | 7 kts | 243° |
| 2026-05-06 13:13 | 51.15172 | -0.18387 | 218 ft | 15 kts | 258° |
| 2026-05-06 13:13 | 51.15142 | -0.18614 | 221 ft | 26 kts | 256° |
| 2026-05-06 13:13 | 51.15108 | -0.18902 | 216 ft | 24 kts | 259° |
| 2026-05-06 13:13 | 51.15064 | -0.19216 | 213 ft | 34 kts | 257° |
| 2026-05-06 13:14 | 51.15009 | -0.19617 | 219 ft | 33 kts | 257° |
| 2026-05-06 13:14 | 51.14971 | -0.19895 | 221 ft | 24 kts | 258° |
| 2026-05-06 13:14 | 51.14927 | -0.20227 | 216 ft | 36 kts | 257° |
| 2026-05-06 13:14 | 51.14869 | -0.20646 | 218 ft | 36 kts | 257° |
| 2026-05-06 13:15 | 51.14816 | -0.20989 | 216 ft | 27 kts | 256° |
| 2026-05-06 13:15 | 51.14777 | -0.21238 | 210 ft | 18 kts | 256° |
| 2026-05-06 13:15 | 51.14767 | -0.21303 | 215 ft | 0 kts | 256° |
| 2026-05-06 13:15 | 51.14726 | -0.21363 | 218 ft | 22 kts | 192° |
| 2026-05-06 13:16 | 51.14587 | -0.21311 | 214 ft | 19 kts | 158° |
| 2026-05-06 13:16 | 51.14521 | -0.21162 | 217 ft | 15 kts | 84° |
| 2026-05-06 13:16 | 51.14569 | -0.20852 | 219 ft | 60 kts | 76° |
| 2026-05-06 13:16 | 51.14698 | -0.19841 | 217 ft | 124 kts | 78° |
| 2026-05-06 13:17 | 51.14929 | -0.18217 | 219 ft | 175 kts | 77° |
| 2026-05-06 13:17 | 51.15191 | -0.16141 | 539 ft | 193 kts | 78° |
| 2026-05-06 13:17 | 51.15422 | -0.14042 | 1269 ft | 190 kts | 77° |
| 2026-05-06 13:17 | 51.15697 | -0.12036 | 2045 ft | 183 kts | 73° |
| 2026-05-06 13:18 | 51.16009 | -0.10023 | 2480 ft | 197 kts | 73° |
| 2026-05-06 13:18 | 51.16347 | -0.07805 | 2866 ft | 214 kts | 74° |
| 2026-05-06 13:18 | 51.16687 | -0.05403 | 3245 ft | 231 kts | 77° |
| 2026-05-06 13:18 | 51.16877 | -0.02761 | 3620 ft | 250 kts | 85° |
| 2026-05-06 13:19 | 51.16872 | 0.00121 | 4104 ft | 268 kts | 89° |
| 2026-05-06 13:19 | 51.16812 | 0.03142 | 4849 ft | 275 kts | 89° |
| 2026-05-06 13:19 | 51.16745 | 0.06204 | 5717 ft | 277 kts | 89° |
| 2026-05-06 13:19 | 51.16680 | 0.09294 | 6579 ft | 280 kts | 89° |
| 2026-05-06 13:20 | 51.16619 | 0.12415 | 7403 ft | 283 kts | 89° |
| 2026-05-06 13:20 | 51.16559 | 0.15587 | 8219 ft | 286 kts | 88° |
| 2026-05-06 13:20 | 51.16549 | 0.18779 | 8989 ft | 290 kts | 86° |
| 2026-05-06 13:20 | 51.16567 | 0.22035 | 9696 ft | 296 kts | 86° |
| 2026-05-06 13:21 | 51.16584 | 0.25313 | 10373 ft | 303 kts | 86° |
| 2026-05-06 13:21 | 51.16598 | 0.28703 | 11033 ft | 309 kts | 87° |
| 2026-05-06 13:21 | 51.16606 | 0.32164 | 11678 ft | 315 kts | 88° |
| 2026-05-06 13:21 | 51.16613 | 0.35685 | 12321 ft | 320 kts | 88° |
| 2026-05-06 13:22 | 50.66274 | 4.91227 | 34805 ft | 474 kts | 103° |
| 2026-05-06 13:22 | 50.64277 | 5.00991 | 34762 ft | 465 kts | 103° |
| 2026-05-06 13:23 | 50.62284 | 5.10689 | 34754 ft | 465 kts | 103° |
| 2026-05-06 13:23 | 50.60283 | 5.20376 | 34752 ft | 465 kts | 103° |
| 2026-05-06 13:24 | 50.58285 | 5.29993 | 34754 ft | 465 kts | 103° |
| 2026-05-06 13:24 | 50.56264 | 5.39670 | 34753 ft | 465 kts | 104° |
| 2026-05-06 13:25 | 50.54234 | 5.49342 | 34749 ft | 465 kts | 104° |
| 2026-05-06 13:25 | 50.52194 | 5.59011 | 34751 ft | 465 kts | 104° |
| 2026-05-06 13:26 | 50.50303 | 5.68731 | 34754 ft | 464 kts | 102° |
| 2026-05-06 13:26 | 50.48497 | 5.78413 | 34753 ft | 465 kts | 102° |
| 2026-05-06 13:27 | 50.46667 | 5.88166 | 34754 ft | 465 kts | 102° |
| 2026-05-06 13:27 | 50.44823 | 5.97933 | 34751 ft | 466 kts | 102° |
| 2026-05-06 13:28 | 50.42971 | 6.07685 | 34750 ft | 466 kts | 102° |
| 2026-05-06 13:28 | 50.41121 | 6.17378 | 34754 ft | 467 kts | 102° |
| 2026-05-06 13:29 | 50.39246 | 6.27132 | 34750 ft | 467 kts | 102° |
| 2026-05-06 13:29 | 50.37370 | 6.36894 | 34750 ft | 467 kts | 101° |
| 2026-05-06 13:30 | 50.36115 | 6.46808 | 34754 ft | 461 kts | 92° |
| 2026-05-06 13:30 | 50.35478 | 6.56795 | 34753 ft | 460 kts | 91° |
| 2026-05-06 13:31 | 50.34846 | 6.66787 | 34754 ft | 460 kts | 92° |
| 2026-05-06 13:31 | 50.34209 | 6.76685 | 34687 ft | 456 kts | 91° |
| 2026-05-06 13:31 | 50.33899 | 6.81613 | 34254 ft | 453 kts | 91° |
| 2026-05-06 13:32 | 50.33584 | 6.86526 | 33601 ft | 453 kts | 92° |
| 2026-05-06 13:32 | 50.33257 | 6.91430 | 33053 ft | 451 kts | 92° |
| 2026-05-06 13:32 | 50.32927 | 6.96319 | 32448 ft | 451 kts | 92° |
| 2026-05-06 13:32 | 50.32597 | 7.01203 | 31746 ft | 452 kts | 92° |
| 2026-05-06 13:33 | 50.32265 | 7.06114 | 31025 ft | 454 kts | 92° |
| 2026-05-06 13:33 | 50.31891 | 7.11034 | 30311 ft | 456 kts | 93° |
| 2026-05-06 13:33 | 50.31463 | 7.15898 | 29594 ft | 458 kts | 95° |
| 2026-05-06 13:33 | 50.30670 | 7.20758 | 28832 ft | 465 kts | 107° |
| 2026-05-06 13:34 | 50.29209 | 7.25301 | 28191 ft | 470 kts | 119° |
| 2026-05-06 13:34 | 50.27160 | 7.29300 | 27622 ft | 472 kts | 129° |
| 2026-05-06 13:34 | 50.24834 | 7.32888 | 27183 ft | 467 kts | 132° |
| 2026-05-06 13:34 | 50.22481 | 7.36338 | 26747 ft | 460 kts | 133° |
| 2026-05-06 13:35 | 50.20163 | 7.39724 | 26304 ft | 453 kts | 133° |
| 2026-05-06 13:35 | 50.17878 | 7.43069 | 25834 ft | 447 kts | 133° |
| 2026-05-06 13:35 | 50.15640 | 7.46399 | 25344 ft | 440 kts | 134° |
| 2026-05-06 13:35 | 50.13506 | 7.49750 | 24541 ft | 428 kts | 129° |
| 2026-05-06 13:36 | 50.11903 | 7.53470 | 23934 ft | 411 kts | 117° |
| 2026-05-06 13:36 | 50.10970 | 7.57579 | 23447 ft | 395 kts | 103° |
| 2026-05-06 13:36 | 50.10817 | 7.61784 | 23003 ft | 385 kts | 87° |
| 2026-05-06 13:36 | 50.11413 | 7.65810 | 22470 ft | 378 kts | 76° |
| 2026-05-06 13:37 | 50.12292 | 7.69645 | 21722 ft | 374 kts | 73° |
| 2026-05-06 13:37 | 50.13230 | 7.73440 | 20787 ft | 375 kts | 73° |
| 2026-05-06 13:37 | 50.14177 | 7.77226 | 19912 ft | 374 kts | 73° |
| 2026-05-06 13:37 | 50.15111 | 7.81036 | 18941 ft | 377 kts | 73° |
| 2026-05-06 13:38 | 50.16016 | 7.84880 | 18006 ft | 378 kts | 72° |
| 2026-05-06 13:38 | 50.16888 | 7.88762 | 17156 ft | 378 kts | 72° |
| 2026-05-06 13:38 | 50.17719 | 7.92641 | 16343 ft | 375 kts | 72° |
| 2026-05-06 13:38 | 50.18502 | 7.96511 | 15551 ft | 372 kts | 72° |
| 2026-05-06 13:39 | 50.19238 | 8.00356 | 14830 ft | 367 kts | 73° |
| 2026-05-06 13:39 | 50.19941 | 8.04168 | 14124 ft | 362 kts | 73° |
| 2026-05-06 13:39 | 50.20616 | 8.07932 | 13418 ft | 357 kts | 73° |
| 2026-05-06 13:39 | 50.21258 | 8.11649 | 12724 ft | 351 kts | 73° |
| 2026-05-06 13:40 | 50.21869 | 8.15312 | 12034 ft | 345 kts | 73° |
| 2026-05-06 13:40 | 50.22443 | 8.18869 | 11374 ft | 338 kts | 73° |
| 2026-05-06 13:40 | 50.23001 | 8.22397 | 10898 ft | 332 kts | 73° |
| 2026-05-06 13:40 | 50.23550 | 8.25903 | 10751 ft | 332 kts | 73° |
| 2026-05-06 13:41 | 50.24099 | 8.29415 | 10753 ft | 332 kts | 73° |
| 2026-05-06 13:41 | 50.24648 | 8.32926 | 10750 ft | 333 kts | 73° |
| 2026-05-06 13:41 | 50.25197 | 8.36439 | 10747 ft | 332 kts | 73° |
| 2026-05-06 13:41 | 50.25741 | 8.39935 | 10710 ft | 327 kts | 73° |
| 2026-05-06 13:42 | 50.26271 | 8.43351 | 10202 ft | 320 kts | 73° |
| 2026-05-06 13:42 | 50.26795 | 8.46726 | 9422 ft | 318 kts | 73° |
| 2026-05-06 13:42 | 50.27317 | 8.50068 | 8722 ft | 314 kts | 73° |
| 2026-05-06 13:42 | 50.27834 | 8.53366 | 8021 ft | 310 kts | 73° |
| 2026-05-06 13:43 | 50.28346 | 8.56630 | 7314 ft | 307 kts | 74° |
| 2026-05-06 13:43 | 50.28505 | 8.59948 | 6847 ft | 310 kts | 96° |
| 2026-05-06 13:43 | 50.28082 | 8.63232 | 6752 ft | 313 kts | 102° |
| 2026-05-06 13:43 | 50.27530 | 8.66498 | 6733 ft | 302 kts | 103° |
| 2026-05-06 13:44 | 50.26979 | 8.69568 | 6736 ft | 288 kts | 103° |
| 2026-05-06 13:44 | 50.26432 | 8.72569 | 6747 ft | 286 kts | 103° |
| 2026-05-06 13:44 | 50.25885 | 8.75561 | 6748 ft | 286 kts | 103° |
| 2026-05-06 13:44 | 50.25339 | 8.78538 | 6714 ft | 282 kts | 103° |
| 2026-05-06 13:45 | 50.24800 | 8.81476 | 6257 ft | 278 kts | 103° |
| 2026-05-06 13:45 | 50.23234 | 8.86980 | 4965 ft | 283 kts | 136° |
| 2026-05-06 13:45 | 50.21583 | 8.88594 | 4412 ft | 280 kts | 158° |
| 2026-05-06 13:46 | 50.19763 | 8.89611 | 4038 ft | 277 kts | 162° |
| 2026-05-06 13:46 | 50.17917 | 8.90508 | 3979 ft | 279 kts | 163° |
| 2026-05-06 13:46 | 50.16073 | 8.91378 | 3969 ft | 269 kts | 163° |
| 2026-05-06 13:46 | 50.14331 | 8.92026 | 3937 ft | 257 kts | 181° |
| 2026-05-06 13:47 | 50.12638 | 8.91426 | 3939 ft | 243 kts | 213° |
| 2026-05-06 13:47 | 50.11459 | 8.89794 | 3930 ft | 216 kts | 243° |
| 2026-05-06 13:47 | 50.10852 | 8.87713 | 3999 ft | 209 kts | 253° |
| 2026-05-06 13:47 | 50.10390 | 8.85566 | 4013 ft | 209 kts | 255° |
| 2026-05-06 13:48 | 50.09923 | 8.83393 | 3980 ft | 208 kts | 254° |
| 2026-05-06 13:48 | 50.09443 | 8.81290 | 3980 ft | 208 kts | 253° |
| 2026-05-06 13:48 | 50.08942 | 8.79167 | 3899 ft | 209 kts | 253° |
| 2026-05-06 13:48 | 50.08468 | 8.77062 | 3560 ft | 201 kts | 254° |
| 2026-05-06 13:49 | 50.08039 | 8.75042 | 3155 ft | 192 kts | 254° |
| 2026-05-06 13:49 | 50.07599 | 8.73106 | 2735 ft | 187 kts | 250° |
| 2026-05-06 13:49 | 50.07069 | 8.71290 | 2320 ft | 181 kts | 249° |
| 2026-05-06 13:49 | 50.06582 | 8.69505 | 1897 ft | 177 kts | 251° |
| 2026-05-06 13:50 | 50.06135 | 8.67701 | 1528 ft | 176 kts | 253° |
| 2026-05-06 13:50 | 50.05730 | 8.65906 | 1325 ft | 175 kts | 252° |
| 2026-05-06 13:50 | 50.05313 | 8.64143 | 1204 ft | 176 kts | 252° |
| 2026-05-06 13:50 | 50.04890 | 8.62366 | 956 ft | 172 kts | 253° |
| 2026-05-06 13:51 | 50.04481 | 8.60619 | 632 ft | 166 kts | 252° |
| 2026-05-06 13:51 | 50.04092 | 8.58992 | 398 ft | 157 kts | 251° |
| 2026-05-06 13:51 | 50.03699 | 8.57397 | 358 ft | 148 kts | 250° |
| 2026-05-06 13:51 | 50.03422 | 8.56170 | 358 ft | 84 kts | 249° |
| 2026-05-06 13:52 | 50.03318 | 8.55739 | 362 ft | 17 kts | 250° |
| 2026-05-06 13:52 | 50.03303 | 8.55627 | 357 ft | 6 kts | 270° |